Time;durP1;ratioP1;P1;durP2;ratioP2;P2;SDS_P1;SDS_P2;PMS_P1;PMS_P2;Temp;Humidity;BMP_temperature;BMP_pressure;BME280_temperature;BME280_humidity;BME280_pressure;Samples;Min_cycle;Max_cycle;Signal;HPM_P1;HPM_P2
2022/03/13 00:02:07;;;;;;;15.57;7.43;;;;;;;0.79;48.94;100205.66;5004243;28;20053;-74
2022/03/13 00:04:35;;;;;;;15.65;7.70;;;;;;;0.79;48.93;100202.13;5007642;28;20085;-75
2022/03/13 00:07:06;;;;;;;18.42;8.38;;;;;;;0.79;48.88;100204.84;5007555;28;20050;-75
2022/03/13 00:09:33;;;;;;;19.95;7.72;;;;;;;0.74;48.97;100204.59;5010117;28;20065;-75
2022/03/13 00:12:04;;;;;;;17.90;8.23;;;;;;;0.70;49.42;100198.75;4989112;28;20093;-75
2022/03/13 00:14:32;;;;;;;16.77;7.47;;;;;;;0.72;49.23;100193.19;5009399;28;20056;-74
2022/03/13 00:16:59;;;;;;;16.83;7.88;;;;;;;0.67;49.17;100197.31;5003934;28;20054;-73
2022/03/13 00:19:26;;;;;;;15.75;7.55;;;;;;;0.71;49.02;100195.06;5008026;28;20046;-72
2022/03/13 00:21:54;;;;;;;15.82;7.80;;;;;;;0.68;49.10;100196.28;5005317;28;20057;-77
2022/03/13 00:24:22;;;;;;;15.55;7.10;;;;;;;0.67;49.03;100194.63;4992428;28;20054;-78
2022/03/13 00:26:52;;;;;;;13.88;6.88;;;;;;;0.64;49.19;100195.03;5009095;28;20065;-78
2022/03/13 00:29:19;;;;;;;14.77;6.95;;;;;;;0.63;48.85;100190.69;5009059;28;20049;-78
2022/03/13 00:31:45;;;;;;;15.82;7.57;;;;;;;0.64;49.12;100189.66;4990134;28;20065;-77
2022/03/13 00:34:11;;;;;;;16.35;7.72;;;;;;;0.64;48.86;100195.03;5007880;28;20050;-78
2022/03/13 00:36:38;;;;;;;13.10;7.10;;;;;;;0.65;49.05;100195.84;5007093;28;20041;-78
2022/03/13 00:39:06;;;;;;;18.10;7.85;;;;;;;0.64;48.90;100195.03;4992296;28;20061;-77
2022/03/13 00:41:32;;;;;;;20.55;7.80;;;;;;;0.67;48.93;100196.47;5008390;28;20042;-78
2022/03/13 00:43:59;;;;;;;17.98;7.93;;;;;;;0.61;49.00;100179.25;5009697;28;20101;-77
2022/03/13 00:46:25;;;;;;;15.80;7.07;;;;;;;0.66;49.02;100201.03;5008820;28;20045;-77
2022/03/13 00:48:52;;;;;;;16.10;7.70;;;;;;;0.66;48.88;100198.34;5004751;28;20434;-77
2022/03/13 00:51:19;;;;;;;23.67;7.47;;;;;;;0.61;49.12;100200.78;5009606;28;20084;-77
2022/03/13 00:53:45;;;;;;;14.10;7.13;;;;;;;0.63;49.10;100195.22;5007674;28;20066;-78
2022/03/13 00:56:11;;;;;;;18.20;7.72;;;;;;;0.65;49.33;100198.53;5008672;28;21579;-77
2022/03/13 00:58:42;;;;;;;13.63;6.85;;;;;;;0.60;49.11;100196.44;5009282;28;20112;-77
2022/03/13 01:01:11;;;;;;;15.45;7.88;;;;;;;0.61;49.11;100198.09;5007302;28;20570;-77
2022/03/13 01:03:49;;;;;;;20.67;8.23;;;;;;;0.61;49.12;100197.28;4987832;28;20149;-77
2022/03/13 01:06:16;;;;;;;17.52;7.72;;;;;;;0.60;49.14;100190.22;5008518;28;20093;-79
2022/03/13 01:08:47;;;;;;;15.27;7.70;;;;;;;0.70;49.15;100198.75;5006774;28;20586;-77
2022/03/13 01:11:14;;;;;;;16.60;7.90;;;;;;;0.68;49.05;100201.66;5009174;28;20197;-77
2022/03/13 01:13:41;;;;;;;18.58;8.00;;;;;;;0.68;49.14;100206.22;5005854;28;20049;-70
2022/03/13 01:16:14;;;;;;;16.55;8.00;;;;;;;0.66;49.20;100200.19;5007810;28;20157;-70
2022/03/13 01:18:43;;;;;;;17.00;8.25;;;;;;;0.62;49.42;100202.44;4990522;28;20060;-69
2022/03/13 01:21:10;;;;;;;15.95;7.90;;;;;;;0.63;49.40;100197.91;5008466;28;20060;-70
2022/03/13 01:23:38;;;;;;;14.52;7.53;;;;;;;0.60;49.39;100201.81;5009201;28;20164;-70
2022/03/13 01:26:39;;;;;;;17.30;7.47;;;;;;;0.66;49.24;100209.13;5006991;28;20081;-69
2022/03/13 01:29:08;;;;;;;14.93;6.88;;;;;;;0.64;48.81;100204.94;5004244;28;20061;-69
2022/03/13 01:31:36;;;;;;;15.43;7.10;;;;;;;0.70;48.81;100206.84;5009340;28;20438;-69
2022/03/13 01:34:05;;;;;;;14.80;6.97;;;;;;;0.65;48.76;100206.59;5007493;28;20508;-69
2022/03/13 01:36:31;;;;;;;15.40;7.63;;;;;;;0.66;48.75;100214.50;5005945;28;20067;-70
2022/03/13 01:38:59;;;;;;;16.55;7.43;;;;;;;0.64;48.79;100213.88;5006597;28;20062;-70
2022/03/13 01:41:32;;;;;;;14.88;7.43;;;;;;;0.67;48.62;100213.47;4991382;28;20076;-69
2022/03/13 01:44:00;;;;;;;14.82;7.72;;;;;;;0.66;48.61;100202.88;5005692;28;20062;-70
2022/03/13 01:46:27;;;;;;;17.13;8.07;;;;;;;0.74;48.54;100226.13;5008939;28;20046;-70
2022/03/13 01:48:57;;;;;;;15.20;7.53;;;;;;;0.72;48.44;100218.25;5006082;28;20049;-70
2022/03/13 01:51:25;;;;;;;14.40;7.00;;;;;;;0.70;48.36;100223.81;5008603;28;20046;-70
2022/03/13 01:53:53;;;;;;;14.38;6.65;;;;;;;0.77;48.14;100215.78;5005395;28;20064;-70
2022/03/13 01:56:21;;;;;;;16.13;6.65;;;;;;;0.78;48.00;100214.75;4989648;28;20462;-69
2022/03/13 01:58:50;;;;;;;12.85;6.45;;;;;;;0.79;47.83;100224.50;4991248;28;20057;-70
2022/03/13 02:01:17;;;;;;;13.95;6.13;;;;;;;0.79;47.63;100229.06;5004254;28;20548;-70
2022/03/13 02:03:44;;;;;;;14.05;6.85;;;;;;;0.77;47.61;100226.56;5009705;28;20068;-70
2022/03/13 02:06:10;;;;;;;14.55;6.30;;;;;;;0.77;47.84;100234.63;5005939;28;20054;-69
2022/03/13 02:08:40;;;;;;;15.10;6.40;;;;;;;0.77;47.68;100231.09;5007148;28;20062;-70
2022/03/13 02:11:09;;;;;;;14.60;6.10;;;;;;;0.75;47.69;100225.09;5006771;28;20068;-70
2022/03/13 02:13:36;;;;;;;13.75;5.55;;;;;;;0.75;47.57;100234.00;5006336;28;20489;-70
2022/03/13 02:16:06;;;;;;;13.50;5.85;;;;;;;0.79;47.64;100231.75;5003604;28;20083;-70
2022/03/13 02:18:31;;;;;;;;;;;;;;;0.80;47.45;100233.41;5007290;28;20062;-70
2022/03/13 02:20:58;;;;;;;12.95;5.80;;;;;;;0.81;47.34;100233.19;4988627;28;19936;-70
2022/03/13 02:23:27;;;;;;;15.45;6.45;;;;;;;0.80;47.36;100238.78;5007615;28;20148;-70
2022/03/13 02:26:00;;;;;;;12.77;6.28;;;;;;;0.73;47.44;100230.69;5006258;28;20069;-70
2022/03/13 02:28:30;;;;;;;12.05;5.85;;;;;;;0.71;47.56;100216.59;5006553;28;20128;-71
2022/03/13 02:30:58;;;;;;;14.18;5.72;;;;;;;0.78;47.73;100220.13;5006214;28;20069;-70
2022/03/13 02:33:25;;;;;;;13.93;5.90;;;;;;;0.76;47.61;100216.81;4990565;28;20703;-71
2022/03/13 02:35:54;;;;;;;14.40;6.25;;;;;;;0.81;47.77;100214.34;5005281;28;20131;-70
2022/03/13 02:38:20;;;;;;;14.55;6.20;;;;;;;0.73;47.56;100205.63;5006650;28;20124;-70
2022/03/13 02:40:48;;;;;;;12.07;5.72;;;;;;;0.76;47.49;100211.44;5007494;28;20088;-70
2022/03/13 02:43:15;;;;;;;15.48;6.43;;;;;;;0.70;47.76;100221.13;4973110;28;20498;-70
2022/03/13 02:45:41;;;;;;;15.18;6.00;;;;;;;0.67;47.85;100210.78;5007745;28;20144;-71
2022/03/13 02:48:09;;;;;;;13.10;5.83;;;;;;;0.71;47.78;100216.59;5003849;28;20458;-69
2022/03/13 02:50:36;;;;;;;14.45;6.07;;;;;;;0.77;47.71;100214.94;5006625;28;20556;-70
2022/03/13 02:53:02;;;;;;;14.52;6.30;;;;;;;0.77;47.46;100217.63;5008561;28;20057;-70
2022/03/13 02:55:29;;;;;;;14.43;5.70;;;;;;;0.69;47.97;100219.47;5005808;28;21038;-71
2022/03/13 02:57:56;;;;;;;13.48;5.88;;;;;;;0.75;47.80;100217.84;5006981;28;20418;-70
2022/03/13 03:00:43;;;;;;;12.27;5.60;;;;;;;0.75;47.88;100214.31;5006663;28;20141;-70
2022/03/13 03:03:13;;;;;;;12.90;5.30;;;;;;;0.77;47.79;100220.31;5003879;28;20054;-70
2022/03/13 03:05:39;;;;;;;15.90;6.35;;;;;;;0.75;48.02;100220.53;5004565;28;20057;-70
2022/03/13 03:10:51;;;;;;;12.70;5.65;;;;;;;0.73;47.85;100213.69;5007007;28;20061;-71
2022/03/13 03:13:17;;;;;;;14.95;7.38;;;;;;;0.80;47.93;100230.72;5004698;28;20097;-70
2022/03/13 03:15:44;;;;;;;12.65;6.22;;;;;;;0.83;48.13;100228.44;5006592;28;20054;-70
2022/03/13 03:18:10;;;;;;;12.90;5.80;;;;;;;0.80;48.42;100236.09;4991203;28;20077;-69
2022/03/13 03:20:38;;;;;;;12.77;5.60;;;;;;;0.81;48.51;100238.56;4989281;28;20588;-69
2022/03/13 03:23:05;;;;;;;11.77;5.50;;;;;;;0.75;48.89;100234.00;5002981;28;20061;-69
2022/03/13 03:25:31;;;;;;;14.38;4.72;;;;;;;0.77;48.88;100239.16;4998970;28;20054;-69
2022/03/13 03:27:59;;;;;;;9.68;4.40;;;;;;;0.80;48.92;100228.03;5006004;28;20054;-69
2022/03/13 03:30:28;;;;;;;11.40;5.00;;;;;;;0.78;49.11;100236.28;4989459;28;20085;-69
2022/03/13 03:32:55;;;;;;;9.18;4.38;;;;;;;0.76;49.04;100226.75;5007339;28;20518;-68
2022/03/13 03:35:23;;;;;;;10.02;4.75;;;;;;;0.75;49.03;100222.38;5006822;28;20125;-70
2022/03/13 03:37:51;;;;;;;10.93;4.70;;;;;;;0.84;49.08;100227.41;5006236;28;20064;-70
2022/03/13 03:40:21;;;;;;;11.43;5.28;;;;;;;0.89;49.12;100234.88;5005963;28;20070;-70
2022/03/13 03:42:47;;;;;;;11.27;4.68;;;;;;;0.88;49.31;100235.91;5002926;28;20067;-69
2022/03/13 03:45:17;;;;;;;10.57;4.90;;;;;;;0.83;49.58;100222.25;5005781;28;20081;-69
2022/03/13 03:47:44;;;;;;;11.38;5.20;;;;;;;0.84;49.36;100221.22;4985966;28;20106;-69
2022/03/13 03:50:14;;;;;;;12.15;5.35;;;;;;;0.92;49.24;100231.78;4971632;28;20054;-70
2022/03/13 03:52:41;;;;;;;11.32;4.70;;;;;;;0.92;49.27;100231.78;5005443;28;20528;-70
2022/03/13 03:55:08;;;;;;;9.98;4.53;;;;;;;0.80;49.27;100206.50;5004109;28;20073;-71
2022/03/13 03:57:34;;;;;;;10.90;4.45;;;;;;;1.00;49.15;100225.41;5001356;28;20169;-71
2022/03/13 04:00:01;;;;;;;10.00;4.75;;;;;;;0.98;49.13;100233.69;4989630;28;20047;-70
2022/03/13 04:02:28;;;;;;;;;;;;;;;0.97;49.21;100223.13;5007267;28;20326;-70
2022/03/13 04:04:55;;;;;;;12.80;4.95;;;;;;;0.98;49.07;100222.09;5002245;28;19933;-69
2022/03/13 04:07:21;;;;;;;10.18;4.43;;;;;;;0.90;49.54;100224.97;5003291;28;20108;-69
2022/03/13 04:09:47;;;;;;;10.15;4.57;;;;;;;0.90;49.58;100222.28;5000035;28;20109;-70
2022/03/13 04:12:14;;;;;;;11.38;4.70;;;;;;;0.91;49.67;100219.34;5003448;28;20144;-71
2022/03/13 04:14:40;;;;;;;12.88;4.53;;;;;;;0.84;49.86;100219.31;4989377;28;20510;-69
2022/03/13 04:17:07;;;;;;;11.70;4.55;;;;;;;0.87;49.90;100215.41;4988866;28;20050;-70
2022/03/13 04:19:33;;;;;;;10.27;4.28;;;;;;;0.79;49.95;100229.06;4989010;28;20477;-71
2022/03/13 04:22:00;;;;;;;8.95;3.97;;;;;;;0.78;50.13;100227.38;5004989;28;20144;-75
2022/03/13 04:24:26;;;;;;;9.73;4.13;;;;;;;0.69;49.86;100202.47;5000957;28;20256;-77
2022/03/13 04:26:52;;;;;;;8.75;3.67;;;;;;;0.86;49.79;100227.22;5005633;28;20049;-76
2022/03/13 04:29:21;;;;;;;9.48;3.80;;;;;;;0.85;49.80;100223.69;5004938;28;20076;-75
2022/03/13 04:31:47;;;;;;;9.65;3.78;;;;;;;0.87;49.79;100231.56;5002624;28;20057;-75
2022/03/13 04:34:13;;;;;;;8.23;3.35;;;;;;;0.84;49.90;100226.59;5002484;28;20556;-76
2022/03/13 04:36:39;;;;;;;8.85;3.50;;;;;;;0.87;49.75;100223.50;5003213;28;20092;-75
2022/03/13 04:39:07;;;;;;;9.55;3.30;;;;;;;0.71;50.08;100227.38;5006306;28;20054;-75
2022/03/13 04:41:34;;;;;;;8.52;3.65;;;;;;;0.69;50.02;100224.00;5004732;28;20548;-76
2022/03/13 04:44:00;;;;;;;7.63;3.30;;;;;;;0.77;49.99;100225.72;4987332;28;20053;-76
2022/03/13 04:46:27;;;;;;;8.48;3.17;;;;;;;0.76;49.72;100232.13;5004154;28;20485;-75
2022/03/13 04:48:53;;;;;;;9.80;3.13;;;;;;;0.64;50.12;100224.63;5005630;28;20140;-77
2022/03/13 04:51:19;;;;;;;7.97;3.13;;;;;;;0.68;49.90;100220.50;5004013;28;20049;-76
2022/03/13 04:53:45;;;;;;;6.90;2.70;;;;;;;0.75;49.89;100230.47;4975753;28;20086;-76
2022/03/13 04:56:13;;;;;;;6.88;2.83;;;;;;;0.79;49.73;100231.75;5007720;28;20054;-77
2022/03/13 04:58:39;;;;;;;7.28;3.03;;;;;;;0.82;49.16;100228.66;5009289;28;20053;-77
2022/03/13 05:01:05;;;;;;;7.07;2.97;;;;;;;0.84;49.53;100224.72;5006487;28;20128;-76
2022/03/13 05:03:33;;;;;;;8.75;3.28;;;;;;;0.76;49.51;100215.97;4991212;28;20064;-76
2022/03/13 05:05:59;;;;;;;8.52;3.03;;;;;;;0.84;49.30;100216.63;5007002;28;20060;-77
2022/03/13 05:08:26;;;;;;;8.40;3.25;;;;;;;0.91;49.46;100232.81;5007238;28;20116;-77
2022/03/13 05:10:52;;;;;;;7.78;2.95;;;;;;;0.78;49.29;100219.28;4991259;28;20066;-77
2022/03/13 05:13:21;;;;;;;6.53;2.83;;;;;;;1.02;48.99;100231.44;4991362;28;20054;-77
2022/03/13 05:15:47;;;;;;;8.90;3.10;;;;;;;0.81;49.45;100232.38;4989641;28;20062;-77
2022/03/13 05:18:14;;;;;;;7.35;2.92;;;;;;;0.93;49.16;100233.44;5009071;28;20072;-78
2022/03/13 05:20:40;;;;;;;8.23;3.28;;;;;;;0.93;49.19;100240.72;4990715;28;20133;-77
2022/03/13 05:23:08;;;;;;;7.50;3.08;;;;;;;0.98;49.04;100235.53;5006223;28;20061;-78
2022/03/13 05:25:35;;;;;;;10.48;3.25;;;;;;;0.99;49.10;100237.19;5008340;28;20054;-78
2022/03/13 05:28:02;;;;;;;7.30;2.90;;;;;;;0.99;48.78;100239.91;5006602;28;20081;-76
2022/03/13 05:30:29;;;;;;;8.18;2.90;;;;;;;1.00;49.14;100244.25;4985462;28;20453;-76
2022/03/13 05:32:55;;;;;;;7.35;2.50;;;;;;;1.08;48.80;100243.25;5009601;28;20065;-76
2022/03/13 05:35:22;;;;;;;6.20;2.40;;;;;;;1.11;48.67;100249.06;5004528;28;20474;-76
2022/03/13 05:37:49;;;;;;;6.97;2.53;;;;;;;1.14;48.52;100255.94;5007963;28;20576;-76
2022/03/13 05:40:16;;;;;;;5.88;2.55;;;;;;;1.14;48.50;100261.31;5008869;28;20140;-76
2022/03/13 05:42:44;;;;;;;6.07;2.38;;;;;;;1.08;48.48;100268.34;5003387;28;20058;-75
2022/03/13 05:45:10;;;;;;;;;;;;;;;1.10;48.53;100263.56;4990939;28;20056;-76
2022/03/13 05:47:45;;;;;;;6.25;2.30;;;;;;;1.06;48.41;100261.47;5008597;28;20320;-75
2022/03/13 05:50:11;;;;;;;7.80;2.70;;;;;;;1.02;48.54;100261.06;4991228;28;20100;-76
2022/03/13 05:52:37;;;;;;;7.20;2.67;;;;;;;1.03;48.48;100269.97;4989935;28;20450;-76
2022/03/13 05:55:05;;;;;;;7.63;2.67;;;;;;;1.13;48.29;100271.25;5009553;28;20537;-76
2022/03/13 05:57:31;;;;;;;7.55;2.30;;;;;;;1.17;48.18;100271.69;5005577;28;20119;-70
2022/03/13 05:59:57;;;;;;;6.70;2.65;;;;;;;1.16;47.99;100274.56;5006184;28;20074;-70
2022/03/13 06:02:25;;;;;;;7.47;2.40;;;;;;;1.10;48.04;100274.34;5004828;28;20061;-69
2022/03/13 06:04:52;;;;;;;6.25;2.53;;;;;;;1.05;48.23;100278.66;5005371;28;20107;-69
2022/03/13 06:07:19;;;;;;;6.05;2.50;;;;;;;1.11;48.07;100285.97;5005317;28;20064;-70
2022/03/13 06:09:45;;;;;;;7.65;2.28;;;;;;;1.09;48.17;100286.16;5007310;28;20438;-70
2022/03/13 06:12:13;;;;;;;8.15;2.72;;;;;;;1.12;48.31;100282.25;5005962;28;20054;-70
2022/03/13 06:14:39;;;;;;;;;;;;;;;1.10;48.40;100281.63;4989968;28;20053;-69
2022/03/13 06:17:05;;;;;;;8.55;2.83;;;;;;;1.14;48.37;100285.56;4990589;28;19972;-70
2022/03/13 06:19:32;;;;;;;7.50;2.70;;;;;;;1.14;48.47;100290.94;4987501;28;20082;-69
2022/03/13 06:22:03;;;;;;;9.85;2.53;;;;;;;1.19;48.51;100290.34;5004739;28;20527;-76
2022/03/13 06:24:29;;;;;;;7.38;2.90;;;;;;;1.18;48.61;100294.91;4988097;28;20050;-76
2022/03/13 06:26:56;;;;;;;8.25;2.80;;;;;;;1.22;48.47;100293.47;5005003;28;20057;-76
2022/03/13 06:29:22;;;;;;;8.77;3.03;;;;;;;1.20;48.76;100292.00;5007048;28;20053;-77
2022/03/13 06:31:49;;;;;;;7.90;2.75;;;;;;;1.19;48.92;100293.03;4986050;28;20157;-77
2022/03/13 06:34:15;;;;;;;8.88;3.13;;;;;;;1.11;48.89;100276.00;5006731;28;20506;-75
2022/03/13 06:36:41;;;;;;;8.90;3.33;;;;;;;1.17;49.07;100285.16;5006866;28;20050;-76
2022/03/13 06:39:08;;;;;;;8.95;3.42;;;;;;;1.22;49.12;100288.06;5002123;28;20307;-76
2022/03/13 06:41:34;;;;;;;8.40;3.33;;;;;;;1.19;49.16;100272.31;5006125;28;20057;-76
2022/03/13 06:44:00;;;;;;;10.25;3.00;;;;;;;1.27;49.24;100285.63;5004160;28;20089;-76
2022/03/13 06:46:29;;;;;;;9.80;2.97;;;;;;;1.26;49.32;100283.97;4991290;28;20074;-76
2022/03/13 06:48:55;;;;;;;8.50;3.50;;;;;;;1.24;49.51;100294.09;5014325;28;20108;-74
2022/03/13 06:51:21;;;;;;;7.90;3.30;;;;;;;1.25;49.59;100297.63;4998499;28;20549;-74
2022/03/13 06:53:48;;;;;;;10.70;4.05;;;;;;;1.31;49.55;100298.69;5003718;28;20152;-75
2022/03/13 06:56:15;;;;;;;7.95;3.50;;;;;;;1.34;49.49;100290.19;5002819;28;20568;-75
2022/03/13 06:58:42;;;;;;;10.77;3.70;;;;;;;1.35;49.54;100286.47;5001951;28;20056;-75
2022/03/13 07:01:09;;;;;;;9.98;3.88;;;;;;;1.37;49.74;100287.09;4997298;28;20204;-75
2022/03/13 07:03:34;;;;;;;11.10;3.90;;;;;;;1.39;49.91;100288.56;4997061;28;20585;-75
2022/03/13 07:06:03;;;;;;;9.55;3.60;;;;;;;1.38;50.14;100286.06;4997208;28;20058;-75
2022/03/13 07:08:30;;;;;;;9.77;3.90;;;;;;;1.39;50.10;100285.03;4997511;28;20198;-75
2022/03/13 07:10:56;;;;;;;11.50;4.13;;;;;;;1.42;50.16;100263.06;5001432;28;20054;-75
2022/03/13 07:13:23;;;;;;;10.73;4.35;;;;;;;1.48;49.90;100272.19;5003584;28;20112;-75
2022/03/13 07:15:49;;;;;;;11.10;4.78;;;;;;;1.61;49.79;100274.91;5002769;28;20127;-75
2022/03/13 07:18:16;;;;;;;12.40;4.70;;;;;;;1.67;49.66;100267.88;5006921;28;20053;-75
2022/03/13 07:20:42;;;;;;;15.35;5.13;;;;;;;1.68;49.58;100262.31;5001851;28;20046;-70
2022/03/13 07:23:09;;;;;;;15.90;5.90;;;;;;;1.78;49.61;100267.28;4991764;28;20054;-75
2022/03/13 07:25:35;;;;;;;11.90;5.15;;;;;;;1.81;49.51;100263.38;5000906;28;20136;-73
2022/03/13 07:28:01;;;;;;;14.63;5.85;;;;;;;1.81;49.77;100268.75;5000161;28;20064;-76
2022/03/13 07:30:28;;;;;;;16.58;6.38;;;;;;;1.82;49.86;100257.75;4987333;28;20144;-77
2022/03/13 07:32:54;;;;;;;11.63;5.07;;;;;;;1.89;49.44;100249.66;4980572;28;20533;-77
2022/03/13 07:35:20;;;;;;;12.02;5.50;;;;;;;1.84;49.41;100239.50;5001729;28;20528;-77
2022/03/13 07:37:47;;;;;;;17.05;6.28;;;;;;;1.98;49.51;100251.13;5004066;28;20060;-78
2022/03/13 07:40:14;;;;;;;15.63;5.80;;;;;;;2.06;49.30;100249.25;5001998;28;20050;-75
2022/03/13 07:42:40;;;;;;;15.40;5.72;;;;;;;2.17;49.14;100247.78;5000783;28;20045;-77
2022/03/13 07:45:09;;;;;;;16.80;5.60;;;;;;;2.23;49.07;100250.50;5003237;28;20417;-77
2022/03/13 07:47:37;;;;;;;12.98;5.25;;;;;;;2.22;48.88;100240.75;5005088;28;20050;-76
2022/03/13 07:50:04;;;;;;;15.68;6.50;;;;;;;2.22;49.01;100248.03;5002493;28;20053;-77
2022/03/13 07:52:30;;;;;;;13.80;6.18;;;;;;;2.11;49.54;100238.69;5008308;28;20050;-76
2022/03/13 07:54:56;;;;;;;13.07;5.80;;;;;;;2.22;49.26;100243.44;5002299;28;20061;-76
2022/03/13 07:57:24;;;;;;;16.15;5.57;;;;;;;2.41;48.86;100249.88;5007606;28;20054;-78
2022/03/13 07:59:50;;;;;;;13.82;5.30;;;;;;;2.47;48.95;100239.25;5005440;28;20061;-76
2022/03/13 08:02:16;;;;;;;11.68;4.85;;;;;;;2.44;48.96;100243.22;5005349;28;20069;-76
2022/03/13 08:04:43;;;;;;;13.18;4.90;;;;;;;2.50;48.82;100238.84;4985235;28;20053;-77
2022/03/13 08:07:09;;;;;;;12.82;4.95;;;;;;;2.55;48.74;100247.16;5002761;28;20140;-77
2022/03/13 08:09:36;;;;;;;14.50;5.30;;;;;;;2.61;48.54;100258.97;5001496;28;20149;-76
2022/03/13 08:12:03;;;;;;;13.93;5.95;;;;;;;2.60;48.57;100254.63;4988545;28;20064;-77
2022/03/13 08:14:29;;;;;;;13.95;5.40;;;;;;;2.54;48.91;100251.72;5004210;28;20079;-76
2022/03/13 08:16:57;;;;;;;11.85;5.32;;;;;;;2.59;48.88;100255.66;4990233;28;20647;-76
2022/03/13 08:19:22;;;;;;;11.90;4.80;;;;;;;2.62;48.63;100264.16;5006002;28;20534;-76
2022/03/13 08:21:50;;;;;;;12.18;5.10;;;;;;;2.65;48.66;100265.59;5004225;28;20469;-80
2022/03/13 08:24:17;;;;;;;11.10;5.10;;;;;;;2.60;48.67;100257.31;5003630;28;20135;-74
2022/03/13 08:26:43;;;;;;;10.65;4.88;;;;;;;2.63;48.76;100257.72;5004635;28;20057;-74
2022/03/13 08:29:11;;;;;;;18.40;5.10;;;;;;;2.58;48.81;100244.03;5011363;28;20525;-74
2022/03/13 08:31:38;;;;;;;15.77;5.68;;;;;;;2.65;48.96;100252.94;5007270;28;20054;-74
2022/03/13 08:34:08;;;;;;;12.13;5.43;;;;;;;2.68;49.04;100257.94;5013362;28;20057;-73
2022/03/13 08:36:36;;;;;;;15.27;6.07;;;;;;;2.76;48.74;100246.06;4999204;28;20461;-74
2022/03/13 08:39:03;;;;;;;12.80;5.32;;;;;;;2.75;48.72;100248.97;4998064;28;20057;-73
2022/03/13 08:41:30;;;;;;;13.48;5.70;;;;;;;2.72;48.76;100250.22;4990702;28;20074;-74
2022/03/13 08:43:56;;;;;;;11.45;5.35;;;;;;;2.80;48.47;100241.88;5005802;28;20068;-73
2022/03/13 08:46:22;;;;;;;15.38;5.88;;;;;;;2.87;48.56;100241.03;5009065;28;20685;-76
2022/03/13 08:48:49;;;;;;;13.95;5.43;;;;;;;3.01;48.30;100249.94;5007288;28;20513;-76
2022/03/13 08:51:18;;;;;;;11.90;5.63;;;;;;;2.96;48.45;100237.88;4991100;28;20050;-68
2022/03/13 08:53:45;;;;;;;11.15;4.75;;;;;;;3.04;48.36;100236.00;5004625;28;20499;-70
2022/03/13 08:56:20;;;;;;;13.73;5.22;;;;;;;2.87;48.57;100233.78;5007235;28;20641;-70
2022/03/13 08:58:49;;;;;;;14.38;5.20;;;;;;;2.90;48.57;100229.81;5009040;28;20579;-70
2022/03/13 09:01:16;;;;;;;12.63;4.60;;;;;;;2.97;48.24;100228.75;5005464;28;20049;-69
2022/03/13 09:03:42;;;;;;;15.93;4.93;;;;;;;3.06;48.29;100225.78;5003484;28;20053;-69
2022/03/13 09:06:09;;;;;;;11.70;4.53;;;;;;;3.13;48.25;100234.72;5001570;28;20062;-70
2022/03/13 09:08:35;;;;;;;14.05;4.93;;;;;;;3.14;48.36;100236.38;5005403;28;20057;-70
2022/03/13 09:11:01;;;;;;;12.38;6.20;;;;;;;3.23;48.07;100224.25;5008605;28;20537;-70
2022/03/13 09:13:30;;;;;;;13.95;4.85;;;;;;;3.18;48.21;100207.88;4976003;28;20468;-69
2022/03/13 09:15:56;;;;;;;13.23;4.80;;;;;;;3.38;47.73;100223.97;5007516;28;20514;-70
2022/03/13 09:18:23;;;;;;;11.00;5.13;;;;;;;3.36;47.53;100204.44;5010519;28;20149;-70
2022/03/13 09:20:49;;;;;;;14.95;4.75;;;;;;;3.40;47.36;100213.78;5007593;28;20061;-70
2022/03/13 09:23:15;;;;;;;10.15;4.80;;;;;;;3.43;47.67;100222.50;5008186;28;20049;-72
2022/03/13 09:25:41;;;;;;;12.82;5.18;;;;;;;3.30;47.87;100218.00;5007935;28;20054;-69
2022/03/13 09:28:08;;;;;;;12.13;5.13;;;;;;;3.31;47.92;100220.47;5008611;28;20517;-70
2022/03/13 09:30:36;;;;;;;;;;;;;;;3.39;47.85;100222.94;4989030;28;20059;-70
2022/03/13 09:33:03;;;;;;;14.68;5.20;;;;;;;3.29;47.72;100214.47;5008433;28;19949;-70
2022/03/13 09:35:29;;;;;;;13.93;5.80;;;;;;;3.41;47.74;100220.00;5005712;28;20049;-70
2022/03/13 09:37:55;;;;;;;13.35;4.85;;;;;;;3.30;47.53;100208.00;5008125;28;20056;-69
2022/03/13 09:40:21;;;;;;;13.35;5.00;;;;;;;3.45;47.55;100215.00;5005744;28;20078;-70
2022/03/13 09:42:48;;;;;;;11.38;5.13;;;;;;;3.46;47.50;100220.19;5005734;28;20068;-70
2022/03/13 09:45:15;;;;;;;12.37;4.60;;;;;;;3.53;47.38;100217.44;5004495;28;20060;-70
2022/03/13 09:47:42;;;;;;;11.20;4.80;;;;;;;3.47;47.51;100199.38;5000464;28;20643;-70
2022/03/13 09:50:12;;;;;;;9.73;4.20;;;;;;;3.70;46.97;100204.22;5004808;28;20049;-70
2022/03/13 09:52:40;;;;;;;11.32;4.35;;;;;;;3.62;47.13;100208.00;5000606;28;20108;-69
2022/03/13 09:55:09;;;;;;;10.48;4.15;;;;;;;3.53;47.09;100195.81;5008434;28;20560;-70
2022/03/13 09:57:36;;;;;;;9.40;3.80;;;;;;;3.58;47.25;100197.84;5006186;28;20445;-70
2022/03/13 10:00:12;;;;;;;11.88;4.38;;;;;;;3.61;46.95;100203.66;5000067;28;20056;-70
2022/03/13 10:02:38;;;;;;;9.13;4.13;;;;;;;3.57;47.43;100209.72;4998442;28;20592;-72
2022/03/13 10:05:10;;;;;;;11.20;4.70;;;;;;;3.67;47.02;100199.25;5001269;28;20058;-71
2022/03/13 10:07:55;;;;;;;10.57;4.68;;;;;;;3.77;46.67;100199.59;5006878;28;20057;-71
2022/03/13 10:10:21;;;;;;;11.60;5.10;;;;;;;3.95;46.64;100195.28;5010374;28;20060;-70
2022/03/13 10:12:48;;;;;;;12.60;5.07;;;;;;;4.04;46.41;100202.06;5001796;28;20092;-69
2022/03/13 10:15:14;;;;;;;15.77;5.20;;;;;;;3.99;46.47;100201.91;5006299;28;20313;-70
2022/03/13 10:17:41;;;;;;;11.73;4.68;;;;;;;3.92;46.52;100177.63;5005208;28;20056;-70
2022/03/13 10:20:14;;;;;;;11.45;5.07;;;;;;;4.02;46.53;100192.53;5001565;28;20053;-70
2022/03/13 10:22:41;;;;;;;16.58;4.75;;;;;;;4.14;46.39;100187.22;5002935;28;20481;-69
2022/03/13 10:25:07;;;;;;;12.23;4.57;;;;;;;4.26;45.93;100152.94;4981791;28;20056;-72
2022/03/13 10:27:34;;;;;;;12.23;4.47;;;;;;;4.86;45.13;100181.25;5002261;28;20407;-71
2022/03/13 10:30:01;;;;;;;12.82;4.50;;;;;;;4.94;44.98;100172.78;4995305;28;20124;-71
2022/03/13 10:32:29;;;;;;;12.25;4.35;;;;;;;5.39;44.31;100176.97;5003870;28;20137;-70
2022/03/13 10:34:57;;;;;;;12.68;4.40;;;;;;;5.72;43.67;100171.28;5000557;28;20081;-71
2022/03/13 10:37:35;;;;;;;10.07;4.18;;;;;;;5.79;43.40;100150.28;5000703;28;20581;-70
2022/03/13 10:40:13;;;;;;;12.50;4.43;;;;;;;5.84;43.13;100163.97;4996549;28;20422;-70
2022/03/13 10:42:43;;;;;;;14.55;4.78;;;;;;;6.13;42.49;100157.88;5000070;28;20065;-70
2022/03/13 10:45:11;;;;;;;15.23;4.70;;;;;;;6.51;42.20;100151.94;5004724;28;20515;-71
2022/03/13 10:47:38;;;;;;;14.50;4.47;;;;;;;6.76;41.94;100148.09;5003751;28;20153;-72
2022/03/13 10:50:07;;;;;;;11.10;4.40;;;;;;;7.09;41.45;100151.19;5000309;28;20064;-73
2022/03/13 10:52:45;;;;;;;10.20;4.38;;;;;;;7.12;41.17;100155.31;5002102;28;20229;-73
2022/03/13 10:55:22;;;;;;;13.45;5.32;;;;;;;7.38;40.71;100148.44;5002815;28;20076;-73
2022/03/13 10:57:49;;;;;;;;;;;;;;;7.58;39.87;100147.13;5002608;28;20057;-75
2022/03/13 11:00:16;;;;;;;12.40;4.35;;;;;;;7.74;39.94;100138.16;4996711;28;19926;-75
2022/03/13 11:02:42;;;;;;;12.20;4.63;;;;;;;7.87;39.76;100125.28;4981782;28;20117;-73
2022/03/13 11:05:09;;;;;;;12.38;4.20;;;;;;;8.27;39.15;100128.84;5007689;28;20054;-73
2022/03/13 11:07:36;;;;;;;10.35;4.28;;;;;;;8.35;38.84;100151.03;4995474;28;20073;-74
2022/03/13 11:10:05;;;;;;;9.68;4.47;;;;;;;8.57;38.69;100127.63;5003783;28;20133;-73
2022/03/13 11:12:33;;;;;;;10.30;4.32;;;;;;;8.65;38.43;100133.47;5006488;28;20053;-74
2022/03/13 11:15:01;;;;;;;11.15;4.53;;;;;;;8.86;38.25;100132.88;5005935;28;20089;-73
2022/03/13 11:17:33;;;;;;;10.95;4.18;;;;;;;9.07;37.65;100126.56;4989940;28;20053;-75
2022/03/13 11:20:01;;;;;;;11.35;4.45;;;;;;;9.25;37.26;100115.56;5005585;28;20174;-75
2022/03/13 11:22:27;;;;;;;;;;;;;;;9.51;37.05;100136.53;4997168;28;20058;-76
2022/03/13 11:24:56;;;;;;;13.03;4.80;;;;;;;9.58;36.88;100128.13;4999491;28;20305;-76
2022/03/13 11:27:25;;;;;;;11.70;4.40;;;;;;;9.51;37.04;100133.81;5000623;28;20074;-76
2022/03/13 11:29:53;;;;;;;12.60;5.30;;;;;;;9.47;37.62;100116.31;5006394;28;20054;-75
2022/03/13 11:32:38;;;;;;;13.00;4.50;;;;;;;9.78;36.38;100123.94;5003467;28;20493;-76
2022/03/13 11:35:27;;;;;;;12.13;5.40;;;;;;;10.30;35.90;100118.78;5003076;28;20058;-76